Time;durP1;ratioP1;P1;durP2;ratioP2;P2;SDS_P1;SDS_P2;PMS_P1;PMS_P2;Temp;Humidity;BMP_temperature;BMP_pressure;BME280_temperature;BME280_humidity;BME280_pressure;Samples;Min_cycle;Max_cycle;Signal;HPM_P1;HPM_P2
2021/12/10 00:00:57;;;;;;;88.33;11.53;;;-0.20;99.90;;;;;;4991869;28;20555;-54
2021/12/10 00:03:23;;;;;;;64.87;8.90;;;;;;;;;;4992832;28;20212;-54
2021/12/10 00:06:02;;;;;;;64.50;8.73;;;-0.20;99.90;;;;;;4990842;28;20756;-54
2021/12/10 00:08:32;;;;;;;72.60;9.70;;;-0.20;99.90;;;;;;4997709;28;20232;-54
2021/12/10 00:11:00;;;;;;;67.33;8.93;;;-0.20;99.90;;;;;;4994635;28;20185;-54
2021/12/10 00:13:27;;;;;;;61.50;8.27;;;-1.10;99.90;;;;;;4995509;28;20244;-54
2021/12/10 00:15:55;;;;;;;55.53;7.60;;;-0.20;99.90;;;;;;4992089;28;20217;-54
2021/12/10 00:18:21;;;;;;;114.03;14.67;;;;;;;;;;4989796;28;20213;-53
2021/12/10 00:20:48;;;;;;;63.83;8.50;;;-0.10;99.90;;;;;;4995289;28;20221;-54
2021/12/10 00:23:20;;;;;;;96.63;12.57;;;1.80;99.90;;;;;;4997349;28;20198;-54
2021/12/10 00:25:50;;;;;;;94.60;12.43;;;-0.20;99.90;;;;;;4992823;28;20806;-53
2021/12/10 00:28:23;;;;;;;68.27;8.83;;;-0.20;99.90;;;;;;4991608;28;20212;-54
2021/12/10 00:31:30;;;;;;;71.83;9.33;;;-0.30;99.90;;;;;;4996075;28;20225;-54
2021/12/10 00:34:16;;;;;;;91.00;12.00;;;-0.40;99.90;;;;;;4988017;28;20220;-54
2021/12/10 00:36:42;;;;;;;86.27;11.80;;;-0.30;99.90;;;;;;4993719;28;20241;-53
2021/12/10 00:39:18;;;;;;;70.13;9.50;;;3.20;99.90;;;;;;4991602;28;20308;-54
2021/12/10 00:41:44;;;;;;;55.30;7.30;;;;;;;;;;4994666;28;20818;-53
2021/12/10 00:44:10;;;;;;;84.63;11.17;;;;;;;;;;4995010;28;20185;-54
2021/12/10 00:46:36;;;;;;;45.67;6.30;;;;;;;;;;4993811;28;20177;-54
2021/12/10 00:49:03;;;;;;;51.77;7.30;;;-0.20;99.90;;;;;;4993413;28;20208;-54
2021/12/10 00:51:29;;;;;;;53.97;7.33;;;;;;;;;;4986995;28;20213;-54
2021/12/10 00:53:56;;;;;;;59.77;7.97;;;;;;;;;;4996282;28;20222;-53
2021/12/10 00:56:23;;;;;;;92.17;12.40;;;;;;;;;;4998805;28;20260;-54
2021/12/10 00:58:48;;;;;;;46.37;6.50;;;;;;;;;;4989337;28;20679;-53
2021/12/10 01:01:19;;;;;;;94.00;12.53;;;-0.20;99.90;;;;;;4994032;28;20221;-53
2021/12/10 01:03:50;;;;;;;81.60;10.90;;;-0.30;99.90;;;;;;4993513;28;20251;-54
2021/12/10 01:06:17;;;;;;;100.43;13.03;;;-0.30;99.90;;;;;;4990159;28;20795;-53
2021/12/10 01:08:48;;;;;;;58.03;7.73;;;-0.30;99.90;;;;;;4994343;28;20304;-54
2021/12/10 01:11:24;;;;;;;89.67;11.87;;;-0.20;99.90;;;;;;4981245;28;20205;-54
2021/12/10 01:13:54;;;;;;;33.63;4.77;;;-0.30;99.90;;;;;;4998001;28;20192;-49
2021/12/10 01:24:38;;;;;;;56.60;7.73;;;;;;;;;;5004889;28;20270;-51
2021/12/10 01:27:13;;;;;;;42.83;5.63;;;-0.30;99.90;;;;;;5005065;28;20685;-49
2021/12/10 01:29:42;;;;;;;53.83;6.87;;;-0.30;99.90;;;;;;5013291;28;20216;-48
2021/12/10 01:32:11;;;;;;;44.20;5.87;;;-0.30;99.90;;;;;;5013449;28;20295;-49
2021/12/10 01:34:37;;;;;;;31.40;4.27;;;;;;;;;;5013733;28;20184;-49
2021/12/10 01:37:04;;;;;;;35.03;4.67;;;;;;;;;;5013288;28;20209;-49
2021/12/10 01:39:33;;;;;;;53.37;6.83;;;-0.30;99.90;;;;;;5012830;28;20576;-49
2021/12/10 01:42:13;;;;;;;41.43;5.47;;;-0.30;99.90;;;;;;5013331;28;20216;-49
2021/12/10 01:44:43;;;;;;;52.97;6.73;;;-0.20;99.90;;;;;;5012660;28;20229;-49
2021/12/10 01:47:10;;;;;;;48.50;6.40;;;-0.30;99.90;;;;;;5013034;28;20188;-48
2021/12/10 01:49:36;;;;;;;44.07;5.67;;;-0.90;99.90;;;;;;5013621;28;20259;-48
2021/12/10 01:52:04;;;;;;;41.30;5.43;;;-0.30;99.90;;;;;;5012808;28;20270;-49
2021/12/10 01:54:35;;;;;;;23.03;3.33;;;-0.30;99.90;;;;;;5012627;28;20228;-48
2021/12/10 01:57:04;;;;;;;45.77;5.97;;;-0.30;99.90;;;;;;5012754;28;20221;-48
2021/12/10 01:59:32;;;;;;;28.13;3.87;;;-0.30;99.90;;;;;;5012493;28;20283;-48
2021/12/10 02:02:12;;;;;;;39.43;5.20;;;0.00;99.90;;;;;;5013579;28;20292;-49
2021/12/10 02:04:40;;;;;;;36.30;4.90;;;-0.30;99.90;;;;;;4995208;28;20199;-48
2021/12/10 02:07:08;;;;;;;41.47;5.37;;;-0.40;99.90;;;;;;5012719;28;20312;-49
2021/12/10 02:09:34;;;;;;;35.83;4.77;;;-0.30;99.90;;;;;;5012309;28;20255;-49
2021/12/10 02:12:00;;;;;;;39.73;5.20;;;;;;;;;;5012441;28;20661;-49
2021/12/10 02:14:25;;;;;;;46.87;5.97;;;-0.30;99.90;;;;;;5011924;28;20217;-49
2021/12/10 02:16:55;;;;;;;38.73;5.10;;;-0.40;99.90;;;;;;5013075;28;20557;-49
2021/12/10 02:19:21;;;;;;;42.47;5.63;;;-0.40;99.90;;;;;;5012289;28;20584;-49
2021/12/10 02:21:47;;;;;;;38.93;5.13;;;;;;;;;;5012423;28;20225;-48
2021/12/10 02:24:14;;;;;;;45.40;5.93;;;-0.80;99.90;;;;;;5011912;28;20248;-49
2021/12/10 02:26:57;;;;;;;47.73;6.23;;;-0.30;99.90;;;;;;5012632;28;20220;-49
2021/12/10 02:29:24;;;;;;;40.57;5.33;;;-0.40;99.90;;;;;;5012044;28;20213;-49
2021/12/10 02:31:51;;;;;;;41.47;5.47;;;-0.50;99.90;;;;;;5012580;28;20286;-49
2021/12/10 02:34:18;;;;;;;46.63;6.07;;;-0.20;99.90;;;;;;5011953;28;20213;-49
2021/12/10 02:36:44;;;;;;;36.40;4.87;;;;;;;;;;5012186;28;20260;-49
2021/12/10 02:39:12;;;;;;;35.90;4.80;;;-0.40;99.90;;;;;;5011583;28;20386;-48
2021/12/10 02:41:39;;;;;;;45.27;5.83;;;-0.50;99.90;;;;;;5012024;28;20228;-49
2021/12/10 02:44:06;;;;;;;41.43;5.60;;;;;;;;;;5011342;28;20208;-49
2021/12/10 02:46:31;;;;;;;46.30;6.07;;;-0.50;99.90;;;;;;5012839;28;20501;-49
2021/12/10 02:48:57;;;;;;;52.63;6.60;;;;;;;;;;5011851;28;20295;-48
2021/12/10 02:51:24;;;;;;;39.77;5.33;;;;;;;;;;5011758;28;20283;-49
2021/12/10 02:53:50;;;;;;;38.10;5.03;;;;;;;;;;5011489;28;20553;-49
2021/12/10 02:56:19;;;;;;;44.13;5.67;;;-0.30;99.90;;;;;;5011619;28;20549;-48
2021/12/10 02:58:48;;;;;;;37.30;4.97;;;-1.30;99.90;;;;;;5011901;28;20169;-49
2021/12/10 03:01:33;;;;;;;46.50;5.97;;;-0.40;99.90;;;;;;5011753;28;20252;-49
2021/12/10 03:03:59;;;;;;;40.47;5.33;;;;;;;;;;5011334;28;20926;-48
2021/12/10 03:06:26;;;;;;;41.43;5.43;;;-0.40;99.90;;;;;;5011653;28;20222;-48
2021/12/10 03:08:54;;;;;;;46.47;6.03;;;-0.30;99.90;;;;;;5011105;28;20225;-48
2021/12/10 03:11:23;;;;;;;47.30;6.13;;;-0.30;99.90;;;;;;5011359;28;20304;-48
2021/12/10 03:13:49;;;;;;;43.90;5.70;;;-0.50;99.90;;;;;;5011669;28;20534;-48
2021/12/10 03:16:15;;;;;;;40.47;5.33;;;-0.50;99.90;;;;;;5011493;28;20225;-49
2021/12/10 03:18:41;;;;;;;42.70;5.47;;;-0.40;99.90;;;;;;5011329;28;20278;-49
2021/12/10 03:21:09;;;;;;;50.23;6.40;;;-0.20;99.90;;;;;;5011333;28;20224;-49
2021/12/10 03:23:37;;;;;;;40.80;5.43;;;-0.30;99.90;;;;;;5010812;28;20594;-49
2021/12/10 03:26:03;;;;;;;42.07;5.63;;;-0.20;99.90;;;;;;5011132;28;20193;-49
2021/12/10 03:28:29;;;;;;;37.27;4.90;;;;;;;;;;5011254;28;20302;-49
2021/12/10 03:30:55;;;;;;;47.53;6.20;;;-0.60;99.90;;;;;;5010434;28;20245;-49
2021/12/10 03:33:21;;;;;;;39.27;5.23;;;;;;;;;;5011150;28;20232;-49
2021/12/10 03:35:50;;;;;;;43.07;5.60;;;-0.30;99.90;;;;;;5011224;28;20232;-48
2021/12/10 03:38:21;;;;;;;58.03;7.53;;;-0.30;99.90;;;;;;5010396;28;20181;-49
2021/12/10 03:40:47;;;;;;;48.30;6.30;;;;;;;;;;5011422;28;20622;-48
2021/12/10 03:43:14;;;;;;;60.17;7.63;;;-0.40;99.90;;;;;;5010349;28;20216;-49
2021/12/10 03:45:50;;;;;;;33.97;4.53;;;-0.30;99.90;;;;;;5011160;28;20221;-48
2021/12/10 03:48:21;;;;;;;39.03;5.13;;;-0.40;99.90;;;;;;5010790;28;20216;-48
2021/12/10 03:50:48;;;;;;;50.17;6.33;;;-0.40;99.90;;;;;;5010700;28;20301;-48
2021/12/10 03:53:16;;;;;;;49.53;6.27;;;0.00;99.90;;;;;;5010595;28;20177;-48
2021/12/10 03:55:43;;;;;;;37.43;4.93;;;-0.20;99.90;;;;;;5011070;28;20251;-49
2021/12/10 03:58:09;;;;;;;48.33;6.17;;;;;;;;;;5010474;28;20221;-49
2021/12/10 04:00:40;;;;;;;42.60;5.57;;;-0.30;99.90;;;;;;5010493;28;20209;-49
2021/12/10 04:03:06;;;;;;;41.80;5.37;;;-0.30;99.90;;;;;;5010455;28;20270;-49
2021/12/10 04:05:32;;;;;;;43.60;5.73;;;-0.30;99.90;;;;;;5010655;28;20181;-49
2021/12/10 04:07:59;;;;;;;38.83;5.10;;;;;;;;;;5011003;28;20537;-48
2021/12/10 04:10:25;;;;;;;40.77;5.33;;;-0.40;99.90;;;;;;5010221;28;20213;-49
2021/12/10 04:12:51;;;;;;;39.93;5.23;;;;;;;;;;5010273;28;20286;-49
2021/12/10 04:15:21;;;;;;;56.23;7.10;;;-0.40;99.90;;;;;;5009936;28;20228;-48
2021/12/10 04:17:49;;;;;;;36.37;4.83;;;-0.30;99.90;;;;;;5010757;28;20221;-48
2021/12/10 04:20:18;;;;;;;41.57;5.57;;;-0.30;99.90;;;;;;5010690;28;20254;-49
2021/12/10 04:22:46;;;;;;;40.30;5.33;;;;;;;;;;5010722;28;20216;-49
2021/12/10 04:25:14;;;;;;;46.77;6.10;;;-0.40;99.90;;;;;;5009994;28;20232;-49
2021/12/10 04:27:42;;;;;;;30.70;4.10;;;-0.40;99.90;;;;;;5010267;28;20224;-49
2021/12/10 04:30:10;;;;;;;34.20;4.53;;;;;;;;;;5009940;28;20224;-49
2021/12/10 04:32:36;;;;;;;35.27;4.70;;;-0.40;99.90;;;;;;4992554;28;20397;-48
2021/12/10 04:35:03;;;;;;;49.63;6.50;;;-0.40;99.90;;;;;;5009835;28;20645;-49
2021/12/10 04:37:28;;;;;;;43.83;5.67;;;-0.40;99.90;;;;;;5010637;28;20572;-49
2021/12/10 04:39:54;;;;;;;39.33;5.20;;;;;;;;;;5009928;28;20220;-48
2021/12/10 04:42:24;;;;;;;40.30;5.27;;;-0.60;99.90;;;;;;5008896;28;20212;-49
2021/12/10 04:44:55;;;;;;;33.87;4.53;;;-0.30;99.90;;;;;;5009537;28;20235;-49
2021/12/10 04:47:21;;;;;;;38.80;5.13;;;-0.50;99.90;;;;;;5010337;28;20204;-49
2021/12/10 04:49:47;;;;;;;37.33;4.90;;;;;;;;;;5010459;28;20184;-48
2021/12/10 04:52:13;;;;;;;42.80;5.67;;;-0.50;99.90;;;;;;5010001;28;20232;-49
2021/12/10 04:54:39;;;;;;;44.60;5.83;;;0.20;99.90;;;;;;5009447;28;20220;-48
2021/12/10 04:57:06;;;;;;;45.30;5.93;;;;;;;;;;5009820;28;20696;-48
2021/12/10 04:59:33;;;;;;;51.27;6.50;;;-0.30;99.90;;;;;;5009641;28;20296;-49
2021/12/10 05:02:00;;;;;;;23.70;3.40;;;-0.30;99.90;;;;;;5009844;28;20279;-49
2021/12/10 05:04:28;;;;;;;32.80;4.37;;;-0.30;99.90;;;;;;5010294;28;20169;-48
2021/12/10 05:06:54;;;;;;;55.43;7.13;;;-0.20;99.90;;;;;;5009764;28;20227;-49
2021/12/10 05:09:21;;;;;;;53.23;6.87;;;-0.20;99.90;;;;;;5009457;28;20282;-49
2021/12/10 05:11:47;;;;;;;45.57;5.87;;;;;;;;;;5009724;28;20228;-49
2021/12/10 05:14:13;;;;;;;51.73;6.73;;;;;;;;;;5008894;28;20235;-48
2021/12/10 05:16:43;;;;;;;39.40;5.17;;;-0.30;99.90;;;;;;5010177;28;20558;-49
2021/12/10 05:19:10;;;;;;;49.33;6.37;;;-0.40;99.90;;;;;;5009622;28;20657;-49
2021/12/10 05:21:38;;;;;;;44.50;5.73;;;-0.20;99.90;;;;;;5009557;28;20616;-49
2021/12/10 05:24:05;;;;;;;52.97;6.77;;;-0.40;99.90;;;;;;5009275;28;20216;-48
2021/12/10 05:26:31;;;;;;;41.77;5.43;;;;;;;;;;4991914;28;20224;-49
2021/12/10 05:28:57;;;;;;;48.13;6.23;;;;;;;;;;5009569;28;20181;-48
2021/12/10 05:31:23;;;;;;;52.73;6.77;;;;;;;;;;5009413;28;20231;-49
2021/12/10 05:33:50;;;;;;;40.53;5.27;;;;;;;;;;5009397;28;20217;-49
2021/12/10 05:36:16;;;;;;;44.97;5.93;;;;;;;;;;5009404;28;20240;-49
2021/12/10 05:38:41;;;;;;;47.67;6.13;;;-0.40;99.90;;;;;;5009122;28;20244;-48
2021/12/10 05:41:10;;;;;;;60.90;7.73;;;-0.30;99.90;;;;;;5009152;28;20299;-48
2021/12/10 05:43:36;;;;;;;40.00;5.20;;;-0.10;99.90;;;;;;5009483;28;20223;-48
2021/12/10 05:46:03;;;;;;;38.43;5.07;;;-0.30;99.90;;;;;;5009553;28;20267;-49
2021/12/10 05:48:29;;;;;;;44.07;5.73;;;;;;;;;;5009434;28;20219;-49
2021/12/10 05:50:55;;;;;;;52.03;6.77;;;;;;;;;;5009286;28;20239;-48
2021/12/10 05:53:21;;;;;;;58.33;7.27;;;-0.40;99.90;;;;;;5010598;28;20217;-48
2021/12/10 05:55:47;;;;;;;54.97;6.93;;;-0.30;99.90;;;;;;5013278;28;20212;-48
2021/12/10 05:58:13;;;;;;;51.47;6.63;;;;;;;;;;5012508;28;20217;-49
2021/12/10 06:00:47;;;;;;;42.43;5.57;;;-0.30;99.90;;;;;;5012796;28;20220;-48
2021/12/10 06:03:13;;;;;;;47.93;6.27;;;-0.30;99.90;;;;;;5012471;28;20677;-48
2021/12/10 06:05:40;;;;;;;59.43;7.50;;;-0.50;99.90;;;;;;5012632;28;20212;-48
2021/12/10 06:08:06;;;;;;;59.17;7.50;;;;;;;;;;5012177;28;20205;-49
2021/12/10 06:10:33;;;;;;;46.33;6.03;;;0.10;99.90;;;;;;5013080;28;20180;-49
2021/12/10 06:12:59;;;;;;;51.90;6.67;;;;;;;;;;5012224;28;20217;-49
2021/12/10 06:15:27;;;;;;;37.77;5.00;;;-0.40;99.90;;;;;;5012047;28;20243;-49
2021/12/10 06:17:53;;;;;;;65.83;8.13;;;-0.30;99.90;;;;;;5012399;28;20221;-48
2021/12/10 06:20:26;;;;;;;53.33;6.83;;;-0.30;99.90;;;;;;5012244;28;20169;-48
2021/12/10 06:22:53;;;;;;;49.03;6.33;;;3.10;99.90;;;;;;5013125;28;20193;-48
2021/12/10 06:25:19;;;;;;;44.10;5.70;;;;;;;;;;5011823;28;20231;-48
2021/12/10 06:27:45;;;;;;;49.90;6.40;;;;;;;;;;5012087;28;20221;-48
2021/12/10 06:30:13;;;;;;;60.40;7.63;;;-0.40;99.90;;;;;;5011606;28;20217;-48
2021/12/10 06:32:40;;;;;;;51.50;6.57;;;-0.40;99.90;;;;;;5012090;28;20569;-48
2021/12/10 06:35:06;;;;;;;56.40;7.33;;;;;;;;;;5011596;28;20177;-47
2021/12/10 06:37:32;;;;;;;45.47;6.07;;;-0.40;99.90;;;;;;5012433;28;20179;-48
2021/12/10 06:39:57;;;;;;;70.97;8.80;;;-0.40;99.90;;;;;;5011568;28;20669;-48
2021/12/10 06:42:23;;;;;;;40.30;5.30;;;;;;;;;;5012010;28;20312;-48
2021/12/10 06:44:49;;;;;;;44.13;5.73;;;;;;;;;;5011596;28;20220;-48
2021/12/10 06:47:15;;;;;;;39.87;5.23;;;;;;;;;;5012190;28;20216;-48
2021/12/10 06:49:41;;;;;;;68.43;8.50;;;;;;;;;;5011817;28;20181;-47
2021/12/10 06:52:07;;;;;;;75.67;9.47;;;;;;;;;;5009834;28;20727;-48
2021/12/10 06:54:33;;;;;;;52.33;6.87;;;;;;;;;;5011140;28;20677;-47
2021/12/10 06:56:59;;;;;;;52.67;6.73;;;;;;;;;;5011670;28;20631;-47
2021/12/10 06:59:26;;;;;;;60.93;7.67;;;;;;;;;;5010736;28;20295;-47
2021/12/10 07:01:53;;;;;;;48.00;6.30;;;-0.60;99.90;;;;;;5011909;28;20652;-47
2021/12/10 07:04:19;;;;;;;53.33;6.80;;;;;;;;;;5010377;28;20761;-47
2021/12/10 07:06:46;;;;;;;35.87;4.77;;;-0.20;99.90;;;;;;4993268;28;20299;-47
2021/12/10 07:09:19;;;;;;;55.00;7.03;;;-0.40;99.90;;;;;;5010906;28;20692;-47
2021/12/10 07:11:46;;;;;;;47.97;6.17;;;-0.40;99.90;;;;;;5011450;28;20231;-47
2021/12/10 07:14:12;;;;;;;60.10;7.80;;;-0.60;99.90;;;;;;5009898;28;20664;-48
2021/12/10 07:16:38;;;;;;;52.73;6.93;;;;;;;;;;5010168;28;20201;-48
2021/12/10 07:19:06;;;;;;;65.23;8.20;;;-0.40;99.90;;;;;;4991684;28;20267;-48
2021/12/10 07:21:33;;;;;;;57.33;7.30;;;-0.40;99.90;;;;;;5009600;28;20307;-48
2021/12/10 07:24:01;;;;;;;41.57;5.40;;;-0.50;99.90;;;;;;5009378;28;20299;-47
2021/12/10 07:26:28;;;;;;;57.03;7.23;;;;;;;;;;5009363;28;20220;-47
2021/12/10 07:28:54;;;;;;;58.30;7.30;;;;;;;;;;5009755;28;20204;-47
2021/12/10 07:31:20;;;;;;;54.87;6.97;;;;;;;;;;5009214;28;20327;-48
2021/12/10 07:33:46;;;;;;;43.00;5.63;;;;;;;;;;5009464;28;20232;-48
2021/12/10 07:36:12;;;;;;;40.87;5.40;;;;;;;;;;5009181;28;20234;-48
2021/12/10 07:38:38;;;;;;;62.70;7.90;;;;;;;;;;4991120;28;20228;-47
2021/12/10 07:41:06;;;;;;;51.57;6.73;;;-0.40;99.90;;;;;;5009369;28;20692;-48
2021/12/10 07:43:32;;;;;;;60.43;7.60;;;;;;;;;;5009252;28;20505;-48
2021/12/10 07:45:58;;;;;;;46.43;5.97;;;;;;;;;;5009130;28;20213;-48
2021/12/10 07:48:26;;;;;;;55.63;7.07;;;;;;;;;;5009048;28;20224;-47
2021/12/10 07:50:58;;;;;;;61.07;7.80;;;-0.30;99.90;;;;;;5008990;28;20779;-48
2021/12/10 07:53:27;;;;;;;68.33;8.60;;;-0.20;99.90;;;;;;5008964;28;20217;-48
2021/12/10 07:55:53;;;;;;;60.03;7.50;;;;;;;;;;5009453;28;20240;-47
2021/12/10 07:58:19;;;;;;;76.20;9.33;;;;;;;;;;5008337;28;20223;-47
2021/12/10 08:00:46;;;;;;;80.67;9.80;;;-0.30;99.90;;;;;;5008941;28;20720;-48
2021/12/10 08:03:12;;;;;;;48.73;6.33;;;;;;;;;;5008806;28;20221;-48
2021/12/10 08:05:39;;;;;;;55.73;7.10;;;-0.20;99.90;;;;;;4991225;28;20213;-48
2021/12/10 08:08:06;;;;;;;59.17;7.60;;;;;;;;;;5008703;28;20177;-48
2021/12/10 08:10:33;;;;;;;78.30;9.70;;;0.00;99.90;;;;;;5009173;28;20243;-47
2021/12/10 08:13:00;;;;;;;69.17;8.67;;;0.00;99.90;;;;;;5008250;28;20263;-48
2021/12/10 08:15:26;;;;;;;56.23;7.27;;;;;;;;;;5007915;28;20225;-48
2021/12/10 08:17:52;;;;;;;60.63;7.60;;;;;;;;;;5008566;28;20220;-48
2021/12/10 08:20:22;;;;;;;73.87;9.33;;;0.20;99.90;;;;;;5008306;28;20264;-48
2021/12/10 08:22:49;;;;;;;62.83;7.93;;;0.00;99.90;;;;;;5008954;28;20193;-48
2021/12/10 08:25:16;;;;;;;54.57;7.07;;;;;;;;;;5006670;28;20323;-48
2021/12/10 08:27:42;;;;;;;76.37;9.60;;;;;;;;;;4986989;28;20217;-48
2021/12/10 08:30:12;;;;;;;63.43;8.17;;;0.20;99.90;;;;;;5005703;28;20275;-48
2021/12/10 08:32:38;;;;;;;89.63;11.00;;;;;;;;;;5006348;28;20251;-48
2021/12/10 08:35:08;;;;;;;59.53;7.77;;;0.30;99.90;;;;;;5005557;28;20208;-48
2021/12/10 08:37:34;;;;;;;61.33;7.80;;;;;;;;;;5007594;28;20177;-48
2021/12/10 08:40:00;;;;;;;58.43;7.47;;;;;;;;;;5006868;28;20226;-48
2021/12/10 08:42:26;;;;;;;57.03;7.23;;;;;;;;;;5007361;28;20697;-48
2021/12/10 08:44:52;;;;;;;62.60;7.90;;;0.40;99.90;;;;;;5008039;28;20235;-48
2021/12/10 08:47:18;;;;;;;63.43;8.13;;;;;;;;;;5008304;28;20180;-48
2021/12/10 08:49:44;;;;;;;62.67;7.73;;;;;;;;;;5009192;28;20177;-49
2021/12/10 08:52:11;;;;;;;53.70;6.87;;;0.20;99.90;;;;;;5008393;28;20239;-48
2021/12/10 08:54:38;;;;;;;55.27;7.00;;;0.30;99.90;;;;;;5007775;28;20227;-48
2021/12/10 08:57:04;;;;;;;36.17;4.93;;;;;;;;;;5008341;28;20899;-48
2021/12/10 08:59:30;;;;;;;85.80;10.43;;;;;;;;;;5007645;28;20221;-49
2021/12/10 09:02:00;;;;;;;60.77;7.67;;;0.10;99.90;;;;;;5008572;28;20212;-48
2021/12/10 09:04:28;;;;;;;36.97;4.93;;;0.10;99.90;;;;;;5008377;28;20219;-48
2021/12/10 09:06:58;;;;;;;51.50;6.77;;;0.20;99.90;;;;;;5008109;28;20310;-49
2021/12/10 09:09:25;;;;;;;40.77;5.43;;;;;;;;;;4990455;28;20843;-50
2021/12/10 09:11:54;;;;;;;53.37;6.93;;;0.10;99.90;;;;;;5008287;28;20251;-48
2021/12/10 09:14:23;;;;;;;63.83;7.93;;;0.40;99.90;;;;;;5007968;28;20810;-48
2021/12/10 09:16:49;;;;;;;82.00;10.00;;;;;;;;;;5008256;28;20247;-48
2021/12/10 09:19:17;;;;;;;64.27;8.20;;;;;;;;;;5007905;28;20224;-48
2021/12/10 09:21:43;;;;;;;60.93;7.73;;;;;;;;;;5008028;28;20275;-49
2021/12/10 09:24:11;;;;;;;65.77;8.23;;;0.50;99.90;;;;;;5007456;28;20697;-48
2021/12/10 09:26:45;;;;;;;62.57;7.83;;;0.40;99.90;;;;;;5007210;28;20224;-48
2021/12/10 09:29:14;;;;;;;59.93;7.77;;;0.50;99.90;;;;;;5009235;28;20152;-48
2021/12/10 09:31:42;;;;;;;70.53;8.80;;;;;;;;;;5010522;28;20661;-48
2021/12/10 09:34:11;;;;;;;66.23;8.33;;;0.50;99.90;;;;;;5010156;28;20707;-49
2021/12/10 09:36:39;;;;;;;67.30;8.40;;;;;;;;;;5009850;28;20232;-48
2021/12/10 09:39:08;;;;;;;76.03;9.40;;;0.50;99.90;;;;;;5010133;28;20628;-48
2021/12/10 09:41:34;;;;;;;71.23;8.90;;;1.40;99.90;;;;;;4992471;28;20221;-48
2021/12/10 09:43:59;;;;;;;59.60;7.60;;;0.80;99.90;;;;;;5009787;28;20177;-48
2021/12/10 09:46:25;;;;;;;67.53;8.33;;;;;;;;;;5010627;28;20234;-48
2021/12/10 09:48:51;;;;;;;61.87;7.80;;;;;;;;;;5009989;28;20220;-48
2021/12/10 09:51:26;;;;;;;55.90;7.17;;;0.80;99.90;;;;;;5009870;28;20227;-48
2021/12/10 09:53:58;;;;;;;59.33;7.53;;;0.90;99.90;;;;;;5009769;28;20274;-49
2021/12/10 09:56:25;;;;;;;58.73;7.47;;;0.90;99.90;;;;;;5009872;28;20973;-48
2021/12/10 09:58:53;;;;;;;51.77;6.67;;;0.80;99.90;;;;;;5010460;28;20211;-48
2021/12/10 10:01:29;;;;;;;61.33;7.80;;;0.90;99.90;;;;;;5009920;28;20239;-48
2021/12/10 10:04:01;;;;;;;39.23;5.10;;;0.90;99.90;;;;;;5010116;28;21104;-48
2021/12/10 10:06:37;;;;;;;47.50;6.13;;;0.90;99.90;;;;;;5010151;28;20232;-48
2021/12/10 10:09:05;;;;;;;61.23;7.80;;;1.30;99.90;;;;;;5009793;28;20231;-48
2021/12/10 10:11:34;;;;;;;40.67;5.37;;;1.30;99.90;;;;;;5010160;28;20271;-48
2021/12/10 10:14:01;;;;;;;45.10;5.87;;;1.50;99.90;;;;;;5009484;28;20191;-49
2021/12/10 10:16:29;;;;;;;50.70;6.57;;;1.30;99.90;;;;;;5010396;28;20318;-48
2021/12/10 10:18:56;;;;;;;41.80;5.57;;;1.30;99.90;;;;;;5009872;28;20217;-48
2021/12/10 10:21:26;;;;;;;35.83;4.83;;;1.30;99.90;;;;;;5009380;28;20221;-48
2021/12/10 10:23:52;;;;;;;47.33;6.23;;;1.30;99.90;;;;;;5008874;28;20229;-48
2021/12/10 10:26:21;;;;;;;45.27;6.07;;;1.10;99.90;;;;;;4957178;28;1039338;-48
2021/12/10 10:28:47;;;;;;;50.13;6.57;;;1.10;99.90;;;;;;5010956;28;20193;-48
2021/12/10 10:31:19;;;;;;;41.07;5.47;;;1.30;99.90;;;;;;5010891;28;20579;-49
2021/12/10 10:33:47;;;;;;;46.87;6.20;;;1.30;99.90;;;;;;5010546;28;20220;-49
2021/12/10 10:36:19;;;;;;;50.50;6.43;;;1.30;99.90;;;;;;5010493;28;20228;-49
2021/12/10 10:39:09;;;;;;;62.83;8.03;;;1.20;99.90;;;;;;5010415;28;20249;-50
2021/12/10 10:41:37;;;;;;;46.50;6.07;;;1.20;99.90;;;;;;5010176;28;20271;-48
2021/12/10 10:44:05;;;;;;;60.43;7.87;;;1.10;99.90;;;;;;5010066;28;20173;-48
2021/12/10 10:46:31;;;;;;;43.87;5.90;;;;;;;;;;5010899;28;21062;-48
2021/12/10 10:48:57;;;;;;;47.53;6.20;;;;;;;;;;5010180;28;20312;-48
2021/12/10 10:51:32;;;;;;;56.13;7.23;;;1.20;99.90;;;;;;5008941;28;20224;-48
2021/12/10 10:54:00;;;;;;;62.73;7.90;;;1.10;99.90;;;;;;5008073;28;20798;-49
2021/12/10 10:56:32;;;;;;;50.47;6.47;;;1.10;99.90;;;;;;5008214;28;20224;-49
2021/12/10 10:59:02;;;;;;;64.67;8.17;;;1.10;99.90;;;;;;5007765;28;20584;-49
2021/12/10 11:01:58;;;;;;;63.90;7.97;;;1.10;99.90;;;;;;5008657;28;20224;-48
2021/12/10 11:04:33;;;;;;;49.33;6.47;;;;;;;;;;5007741;28;20216;-49
2021/12/10 11:07:11;;;;;;;58.90;7.50;;;1.00;99.90;;;;;;5008924;28;20274;-49
2021/12/10 11:09:53;;;;;;;48.20;6.27;;;1.20;99.90;;;;;;5009280;28;20274;-49
2021/12/10 11:12:30;;;;;;;50.90;6.53;;;1.10;99.90;;;;;;5009362;28;20228;-49
2021/12/10 11:14:58;;;;;;;53.60;6.97;;;-0.90;99.90;;;;;;5009026;28;20231;-48
2021/12/10 11:17:32;;;;;;;41.97;5.60;;;1.30;99.90;;;;;;5009390;28;20222;-49
2021/12/10 11:20:04;;;;;;;56.47;7.17;;;1.30;99.90;;;;;;5010503;28;20576;-49
2021/12/10 11:22:31;;;;;;;64.87;8.20;;;1.60;99.90;;;;;;5009467;28;20720;-49
2021/12/10 11:25:00;;;;;;;49.47;6.43;;;1.30;99.90;;;;;;5009134;28;20294;-48
2021/12/10 11:27:38;;;;;;;66.87;8.40;;;1.00;99.90;;;;;;5009012;28;20589;-50
2021/12/10 11:30:12;;;;;;;51.03;6.63;;;1.30;99.90;;;;;;5008915;28;20216;-49
2021/12/10 11:32:54;;;;;;;27.47;3.77;;;1.10;99.90;;;;;;5009749;28;20728;-48
2021/12/10 11:35:31;;;;;;;53.70;6.90;;;1.30;99.90;;;;;;5009078;28;20609;-49
2021/12/10 11:38:05;;;;;;;50.53;6.57;;;1.70;99.90;;;;;;5010059;28;20200;-49
2021/12/10 11:40:49;;;;;;;52.77;7.07;;;;;;;;;;5009401;28;20208;-49
2021/12/10 11:43:54;;;;;;;69.67;8.90;;;1.40;99.90;;;;;;4991023;28;20213;-49
2021/12/10 11:46:51;;;;;;;51.50;6.73;;;1.30;99.90;;;;;;5008971;28;20216;-48
2021/12/10 11:49:38;;;;;;;45.70;5.93;;;1.60;99.90;;;;;;5009281;28;20221;-49
2021/12/10 11:52:11;;;;;;;58.93;7.57;;;1.60;99.90;;;;;;5008673;28;20229;-49
2021/12/10 11:54:37;;;;;;;34.13;4.73;;;;;;;;;;5008825;28;20782;-49
2021/12/10 11:57:03;;;;;;;26.87;3.83;;;;;;;;;;5009145;28;20224;-48
2021/12/10 11:59:36;;;;;;;48.33;6.37;;;1.60;99.90;;;;;;5008512;28;20220;-48
2021/12/10 12:02:08;;;;;;;41.43;5.60;;;0.50;99.90;;;;;;5009327;28;21076;-49
2021/12/10 12:04:53;;;;;;;45.87;6.03;;;1.70;99.90;;;;;;5009389;28;20173;-49
2021/12/10 12:07:30;;;;;;;37.23;4.97;;;1.40;99.90;;;;;;5009094;28;20212;-49
2021/12/10 12:10:02;;;;;;;44.73;5.90;;;1.70;99.90;;;;;;5008868;28;20216;-48
2021/12/10 12:12:39;;;;;;;40.77;5.47;;;1.50;99.90;;;;;;5008632;28;20216;-49
2021/12/10 12:15:29;;;;;;;36.57;4.97;;;1.50;99.90;;;;;;5008688;28;20334;-49
2021/12/10 12:17:57;;;;;;;45.57;6.07;;;1.60;99.90;;;;;;5008681;28;20208;-49
2021/12/10 12:20:32;;;;;;;35.53;4.80;;;1.20;99.90;;;;;;5008927;28;20266;-49
2021/12/10 12:26:13;;;;;;;42.37;5.77;;;1.60;99.90;;;;;;5008305;28;20650;-48
2021/12/10 12:28:45;;;;;;;42.17;5.57;;;1.50;99.90;;;;;;5009315;28;20193;-48
2021/12/10 12:31:21;;;;;;;51.50;6.57;;;1.40;99.90;;;;;;5008339;28;20317;-49
2021/12/10 12:34:34;;;;;;;41.00;5.40;;;1.40;99.90;;;;;;5008319;28;20220;-49
2021/12/10 12:37:03;;;;;;;44.00;5.77;;;1.40;99.90;;;;;;4909813;29;20649;-48
2021/12/10 12:39:55;;;;;;;51.23;6.53;;;1.40;99.90;;;;;;4909591;29;20601;-49
2021/12/10 12:42:33;;;;;;;37.63;5.13;;;1.40;99.90;;;;;;4975270;28;20216;-48
2021/12/10 12:45:18;;;;;;;47.03;6.07;;;1.40;99.90;;;;;;5008012;28;20299;-48
2021/12/10 12:47:47;;;;;;;42.63;5.63;;;1.30;99.90;;;;;;5008458;28;20217;-49
2021/12/10 12:50:26;;;;;;;35.83;5.00;;;1.00;99.90;;;;;;5008719;28;20173;-50
2021/12/10 12:52:55;;;;;;;38.77;5.23;;;1.30;99.90;;;;;;5009174;28;20688;-50
2021/12/10 12:55:44;;;;;;;35.10;4.67;;;1.40;99.90;;;;;;5007780;28;20217;-48
2021/12/10 12:58:09;;;;;;;57.80;7.33;;;1.40;99.90;;;;;;5007292;28;20695;-49
2021/12/10 13:01:03;;;;;;;49.83;6.50;;;1.20;99.90;;;;;;5008214;28;20212;-48
2021/12/10 13:03:29;;;;;;;51.67;6.63;;;;;;;;;;5010052;28;20224;-49
2021/12/10 13:06:23;;;;;;;45.20;5.90;;;1.40;99.90;;;;;;4994211;28;20208;-48
2021/12/10 13:09:00;;;;;;;49.93;6.60;;;1.30;99.90;;;;;;5011580;28;20836;-49
2021/12/10 13:11:46;;;;;;;43.83;5.73;;;1.10;99.90;;;;;;5011930;28;20220;-48
2021/12/10 13:14:16;;;;;;;47.30;6.40;;;;;;;;;;4994796;28;20231;-49
2021/12/10 13:16:46;;;;;;;44.13;5.87;;;1.30;99.90;;;;;;5012495;28;20196;-49
2021/12/10 13:19:22;;;;;;;46.77;6.10;;;1.30;99.90;;;;;;5011837;28;20248;-48
2021/12/10 13:21:53;;;;;;;43.23;5.67;;;1.30;99.90;;;;;;5011938;28;20900;-49
2021/12/10 13:24:19;;;;;;;46.63;6.07;;;1.30;99.90;;;;;;5011142;28;20212;-48
2021/12/10 13:26:46;;;;;;;50.47;6.57;;;1.10;99.90;;;;;;5011718;28;20267;-49
2021/12/10 13:29:13;;;;;;;40.43;5.53;;;;;;;;;;5011215;28;20172;-48
2021/12/10 13:31:40;;;;;;;66.07;8.37;;;1.50;99.90;;;;;;5012070;28;20239;-48
2021/12/10 13:34:07;;;;;;;48.43;6.33;;;1.30;99.90;;;;;;5011333;28;20212;-49